sensor_id;sensor_type;location;lat;lon;timestamp;P1;durP1;ratioP1;P2;durP2;ratioP2
76725;SDS011;65651;53.154;17.916;2023-07-31T00:00:44;7.40;;;4.10;;
76725;SDS011;65651;53.154;17.916;2023-07-31T00:03:25;8.80;;;6.60;;
76725;SDS011;65651;53.154;17.916;2023-07-31T00:05:52;14.40;;;8.50;;
76725;SDS011;65651;53.154;17.916;2023-07-31T00:08:19;10.00;;;8.00;;
76725;SDS011;65651;53.154;17.916;2023-07-31T00:10:47;8.70;;;4.80;;
76725;SDS011;65651;53.154;17.916;2023-07-31T00:13:14;8.80;;;5.30;;
76725;SDS011;65651;53.154;17.916;2023-07-31T00:15:41;9.90;;;7.60;;
76725;SDS011;65651;53.154;17.916;2023-07-31T00:18:08;22.40;;;20.00;;
76725;SDS011;65651;53.154;17.916;2023-07-31T00:20:36;31.80;;;26.10;;
76725;SDS011;65651;53.154;17.916;2023-07-31T00:23:03;32.00;;;28.60;;
76725;SDS011;65651;53.154;17.916;2023-07-31T00:25:30;30.80;;;24.80;;
76725;SDS011;65651;53.154;17.916;2023-07-31T00:27:58;21.50;;;17.30;;
76725;SDS011;65651;53.154;17.916;2023-07-31T00:30:26;15.50;;;13.30;;
76725;SDS011;65651;53.154;17.916;2023-07-31T00:32:54;9.00;;;6.30;;
76725;SDS011;65651;53.154;17.916;2023-07-31T00:35:21;7.20;;;4.30;;
76725;SDS011;65651;53.154;17.916;2023-07-31T00:37:49;7.40;;;4.10;;
76725;SDS011;65651;53.154;17.916;2023-07-31T00:40:16;4.90;;;3.60;;
76725;SDS011;65651;53.154;17.916;2023-07-31T00:42:43;6.50;;;5.60;;
76725;SDS011;65651;53.154;17.916;2023-07-31T00:45:11;11.70;;;9.30;;
76725;SDS011;65651;53.154;17.916;2023-07-31T00:47:38;13.30;;;11.90;;
76725;SDS011;65651;53.154;17.916;2023-07-31T00:50:06;13.90;;;11.30;;
76725;SDS011;65651;53.154;17.916;2023-07-31T00:52:35;10.80;;;8.80;;
76725;SDS011;65651;53.154;17.916;2023-07-31T00:55:05;7.90;;;4.60;;
76725;SDS011;65651;53.154;17.916;2023-07-31T00:57:33;5.80;;;3.20;;
76725;SDS011;65651;53.154;17.916;2023-07-31T01:00:03;4.70;;;2.50;;
76725;SDS011;65651;53.154;17.916;2023-07-31T01:02:31;4.00;;;2.00;;
76725;SDS011;65651;53.154;17.916;2023-07-31T01:04:59;5.10;;;3.00;;
76725;SDS011;65651;53.154;17.916;2023-07-31T01:10:23;3.80;;;2.80;;
76725;SDS011;65651;53.154;17.916;2023-07-31T01:12:57;7.10;;;5.30;;
76725;SDS011;65651;53.154;17.916;2023-07-31T01:15:25;17.80;;;13.10;;
76725;SDS011;65651;53.154;17.916;2023-07-31T01:17:53;16.70;;;11.60;;
76725;SDS011;65651;53.154;17.916;2023-07-31T01:20:23;15.20;;;10.40;;
76725;SDS011;65651;53.154;17.916;2023-07-31T01:26:12;10.20;;;4.90;;
76725;SDS011;65651;53.154;17.916;2023-07-31T01:29:01;8.40;;;3.60;;
76725;SDS011;65651;53.154;17.916;2023-07-31T01:31:38;8.10;;;3.80;;
76725;SDS011;65651;53.154;17.916;2023-07-31T01:34:07;6.60;;;3.90;;
76725;SDS011;65651;53.154;17.916;2023-07-31T01:36:37;4.80;;;3.30;;
76725;SDS011;65651;53.154;17.916;2023-07-31T01:39:06;8.20;;;3.50;;
76725;SDS011;65651;53.154;17.916;2023-07-31T01:41:33;5.60;;;3.30;;
76725;SDS011;65651;53.154;17.916;2023-07-31T01:44:00;5.70;;;3.00;;
76725;SDS011;65651;53.154;17.916;2023-07-31T01:46:27;4.50;;;2.80;;
76725;SDS011;65651;53.154;17.916;2023-07-31T01:48:57;4.60;;;3.20;;
76725;SDS011;65651;53.154;17.916;2023-07-31T01:51:24;6.00;;;3.40;;
76725;SDS011;65651;53.154;17.916;2023-07-31T01:53:51;6.30;;;3.30;;
76725;SDS011;65651;53.154;17.916;2023-07-31T01:56:19;9.20;;;3.60;;
76725;SDS011;65651;53.154;17.916;2023-07-31T01:58:46;5.40;;;3.80;;
76725;SDS011;65651;53.154;17.916;2023-07-31T02:01:13;5.90;;;3.50;;
76725;SDS011;65651;53.154;17.916;2023-07-31T02:03:41;3.80;;;2.30;;
76725;SDS011;65651;53.154;17.916;2023-07-31T02:06:09;5.00;;;2.50;;
76725;SDS011;65651;53.154;17.916;2023-07-31T02:08:36;6.90;;;3.20;;
76725;SDS011;65651;53.154;17.916;2023-07-31T02:11:03;6.90;;;2.90;;
76725;SDS011;65651;53.154;17.916;2023-07-31T02:13:31;6.80;;;2.90;;
76725;SDS011;65651;53.154;17.916;2023-07-31T02:15:59;6.60;;;3.10;;
76725;SDS011;65651;53.154;17.916;2023-07-31T02:18:26;6.50;;;2.90;;
76725;SDS011;65651;53.154;17.916;2023-07-31T02:20:53;7.30;;;3.30;;
76725;SDS011;65651;53.154;17.916;2023-07-31T02:23:20;4.80;;;2.70;;
76725;SDS011;65651;53.154;17.916;2023-07-31T02:25:48;4.80;;;3.40;;
76725;SDS011;65651;53.154;17.916;2023-07-31T02:28:15;7.50;;;2.90;;
76725;SDS011;65651;53.154;17.916;2023-07-31T02:30:45;5.00;;;3.20;;
76725;SDS011;65651;53.154;17.916;2023-07-31T02:33:15;5.90;;;3.20;;
76725;SDS011;65651;53.154;17.916;2023-07-31T02:35:43;3.60;;;2.40;;
76725;SDS011;65651;53.154;17.916;2023-07-31T02:38:10;6.10;;;2.90;;
76725;SDS011;65651;53.154;17.916;2023-07-31T02:40:39;4.60;;;3.10;;
76725;SDS011;65651;53.154;17.916;2023-07-31T02:43:08;4.80;;;2.90;;
76725;SDS011;65651;53.154;17.916;2023-07-31T02:45:36;5.20;;;2.60;;
76725;SDS011;65651;53.154;17.916;2023-07-31T02:48:04;5.30;;;3.10;;
76725;SDS011;65651;53.154;17.916;2023-07-31T02:50:34;6.50;;;3.20;;
76725;SDS011;65651;53.154;17.916;2023-07-31T02:53:02;6.00;;;4.00;;
76725;SDS011;65651;53.154;17.916;2023-07-31T02:55:29;8.10;;;4.00;;
76725;SDS011;65651;53.154;17.916;2023-07-31T02:57:56;6.30;;;4.60;;
76725;SDS011;65651;53.154;17.916;2023-07-31T03:00:25;7.00;;;4.00;;
76725;SDS011;65651;53.154;17.916;2023-07-31T03:02:52;5.60;;;3.90;;
76725;SDS011;65651;53.154;17.916;2023-07-31T03:05:20;6.90;;;3.80;;
76725;SDS011;65651;53.154;17.916;2023-07-31T03:07:47;8.40;;;3.80;;
76725;SDS011;65651;53.154;17.916;2023-07-31T03:10:14;4.70;;;3.20;;
76725;SDS011;65651;53.154;17.916;2023-07-31T03:12:42;5.40;;;3.30;;
76725;SDS011;65651;53.154;17.916;2023-07-31T03:15:13;7.40;;;3.70;;
76725;SDS011;65651;53.154;17.916;2023-07-31T03:17:40;6.50;;;3.40;;
76725;SDS011;65651;53.154;17.916;2023-07-31T03:20:08;8.50;;;3.70;;
76725;SDS011;65651;53.154;17.916;2023-07-31T03:22:35;5.40;;;3.20;;
76725;SDS011;65651;53.154;17.916;2023-07-31T03:25:03;4.70;;;3.60;;
76725;SDS011;65651;53.154;17.916;2023-07-31T03:27:31;5.70;;;3.90;;
76725;SDS011;65651;53.154;17.916;2023-07-31T03:29:59;7.30;;;3.70;;
76725;SDS011;65651;53.154;17.916;2023-07-31T03:32:27;7.40;;;4.50;;
76725;SDS011;65651;53.154;17.916;2023-07-31T03:34:55;7.40;;;4.20;;
76725;SDS011;65651;53.154;17.916;2023-07-31T03:37:22;5.40;;;3.70;;
76725;SDS011;65651;53.154;17.916;2023-07-31T03:39:49;6.60;;;4.10;;
76725;SDS011;65651;53.154;17.916;2023-07-31T03:42:17;10.90;;;4.30;;
76725;SDS011;65651;53.154;17.916;2023-07-31T03:44:45;10.70;;;4.20;;
76725;SDS011;65651;53.154;17.916;2023-07-31T03:47:12;5.30;;;3.20;;
76725;SDS011;65651;53.154;17.916;2023-07-31T03:49:39;5.90;;;3.50;;
76725;SDS011;65651;53.154;17.916;2023-07-31T03:52:07;6.70;;;3.10;;
76725;SDS011;65651;53.154;17.916;2023-07-31T03:54:34;6.00;;;3.70;;
76725;SDS011;65651;53.154;17.916;2023-07-31T03:57:01;4.60;;;3.50;;
76725;SDS011;65651;53.154;17.916;2023-07-31T03:59:29;9.00;;;3.30;;
76725;SDS011;65651;53.154;17.916;2023-07-31T04:01:56;7.60;;;3.10;;
76725;SDS011;65651;53.154;17.916;2023-07-31T04:04:23;6.00;;;2.50;;
76725;SDS011;65651;53.154;17.916;2023-07-31T04:06:51;5.10;;;2.50;;
76725;SDS011;65651;53.154;17.916;2023-07-31T04:09:18;3.90;;;2.20;;
76725;SDS011;65651;53.154;17.916;2023-07-31T04:11:46;4.00;;;1.90;;
76725;SDS011;65651;53.154;17.916;2023-07-31T04:14:14;3.10;;;1.90;;
76725;SDS011;65651;53.154;17.916;2023-07-31T04:16:44;4.50;;;2.20;;
76725;SDS011;65651;53.154;17.916;2023-07-31T04:19:11;3.60;;;1.70;;
76725;SDS011;65651;53.154;17.916;2023-07-31T04:21:43;6.00;;;2.10;;
76725;SDS011;65651;53.154;17.916;2023-07-31T04:24:10;4.80;;;1.90;;
76725;SDS011;65651;53.154;17.916;2023-07-31T04:26:37;5.90;;;2.00;;
76725;SDS011;65651;53.154;17.916;2023-07-31T04:29:05;5.30;;;2.20;;
76725;SDS011;65651;53.154;17.916;2023-07-31T04:31:33;3.40;;;2.00;;
76725;SDS011;65651;53.154;17.916;2023-07-31T04:34:00;4.80;;;2.00;;
76725;SDS011;65651;53.154;17.916;2023-07-31T04:36:27;4.00;;;2.30;;
76725;SDS011;65651;53.154;17.916;2023-07-31T04:38:54;6.10;;;2.40;;
76725;SDS011;65651;53.154;17.916;2023-07-31T04:41:22;6.90;;;2.80;;
76725;SDS011;65651;53.154;17.916;2023-07-31T04:43:49;3.50;;;2.20;;
76725;SDS011;65651;53.154;17.916;2023-07-31T04:46:17;5.30;;;1.70;;
76725;SDS011;65651;53.154;17.916;2023-07-31T04:48:44;2.90;;;1.60;;
76725;SDS011;65651;53.154;17.916;2023-07-31T04:51:11;5.20;;;1.80;;
76725;SDS011;65651;53.154;17.916;2023-07-31T04:53:39;5.40;;;2.10;;
76725;SDS011;65651;53.154;17.916;2023-07-31T04:56:06;2.90;;;2.10;;
76725;SDS011;65651;53.154;17.916;2023-07-31T04:58:33;5.10;;;2.50;;
76725;SDS011;65651;53.154;17.916;2023-07-31T05:01:00;5.80;;;3.00;;
76725;SDS011;65651;53.154;17.916;2023-07-31T05:03:28;4.30;;;1.40;;
76725;SDS011;65651;53.154;17.916;2023-07-31T05:05:56;4.70;;;2.20;;
76725;SDS011;65651;53.154;17.916;2023-07-31T05:08:23;3.10;;;1.70;;
76725;SDS011;65651;53.154;17.916;2023-07-31T05:10:50;2.90;;;1.50;;
76725;SDS011;65651;53.154;17.916;2023-07-31T05:13:17;3.20;;;1.80;;
76725;SDS011;65651;53.154;17.916;2023-07-31T05:15:45;3.50;;;1.40;;
76725;SDS011;65651;53.154;17.916;2023-07-31T05:18:16;4.30;;;2.00;;
76725;SDS011;65651;53.154;17.916;2023-07-31T05:20:44;6.40;;;1.50;;
76725;SDS011;65651;53.154;17.916;2023-07-31T05:23:11;6.30;;;1.40;;
76725;SDS011;65651;53.154;17.916;2023-07-31T05:25:38;3.40;;;1.80;;
76725;SDS011;65651;53.154;17.916;2023-07-31T05:28:05;5.20;;;1.80;;
76725;SDS011;65651;53.154;17.916;2023-07-31T05:30:33;2.90;;;1.60;;
76725;SDS011;65651;53.154;17.916;2023-07-31T05:33:00;3.90;;;1.70;;
76725;SDS011;65651;53.154;17.916;2023-07-31T05:35:27;4.70;;;2.00;;
76725;SDS011;65651;53.154;17.916;2023-07-31T05:37:55;3.10;;;1.50;;
76725;SDS011;65651;53.154;17.916;2023-07-31T05:40:23;5.30;;;2.20;;
76725;SDS011;65651;53.154;17.916;2023-07-31T05:42:50;5.60;;;2.20;;
76725;SDS011;65651;53.154;17.916;2023-07-31T05:45:17;2.70;;;2.00;;
76725;SDS011;65651;53.154;17.916;2023-07-31T05:47:44;3.10;;;1.80;;
76725;SDS011;65651;53.154;17.916;2023-07-31T05:50:15;4.00;;;2.20;;
76725;SDS011;65651;53.154;17.916;2023-07-31T05:52:43;3.70;;;2.30;;
76725;SDS011;65651;53.154;17.916;2023-07-31T05:55:14;5.10;;;2.10;;
76725;SDS011;65651;53.154;17.916;2023-07-31T05:57:41;2.60;;;2.20;;
76725;SDS011;65651;53.154;17.916;2023-07-31T06:00:09;3.00;;;2.20;;
76725;SDS011;65651;53.154;17.916;2023-07-31T06:02:37;3.60;;;2.20;;
76725;SDS011;65651;53.154;17.916;2023-07-31T06:05:05;3.00;;;2.60;;
76725;SDS011;65651;53.154;17.916;2023-07-31T06:07:33;2.90;;;1.90;;
76725;SDS011;65651;53.154;17.916;2023-07-31T06:10:00;2.60;;;1.90;;
76725;SDS011;65651;53.154;17.916;2023-07-31T06:12:31;3.90;;;1.70;;
76725;SDS011;65651;53.154;17.916;2023-07-31T06:14:59;4.00;;;2.30;;
76725;SDS011;65651;53.154;17.916;2023-07-31T06:17:27;2.80;;;2.00;;
76725;SDS011;65651;53.154;17.916;2023-07-31T06:19:54;3.20;;;2.10;;
76725;SDS011;65651;53.154;17.916;2023-07-31T06:22:21;3.80;;;2.50;;
76725;SDS011;65651;53.154;17.916;2023-07-31T06:24:49;3.30;;;1.70;;
76725;SDS011;65651;53.154;17.916;2023-07-31T06:27:16;3.00;;;1.40;;
76725;SDS011;65651;53.154;17.916;2023-07-31T06:29:44;2.50;;;1.50;;
76725;SDS011;65651;53.154;17.916;2023-07-31T06:32:11;3.10;;;1.80;;
76725;SDS011;65651;53.154;17.916;2023-07-31T06:34:39;2.60;;;1.50;;
76725;SDS011;65651;53.154;17.916;2023-07-31T06:37:06;3.30;;;1.70;;
76725;SDS011;65651;53.154;17.916;2023-07-31T06:39:33;2.60;;;1.30;;
76725;SDS011;65651;53.154;17.916;2023-07-31T06:42:00;2.50;;;1.30;;
76725;SDS011;65651;53.154;17.916;2023-07-31T06:44:28;3.30;;;1.60;;
76725;SDS011;65651;53.154;17.916;2023-07-31T06:46:55;2.30;;;1.50;;
76725;SDS011;65651;53.154;17.916;2023-07-31T06:49:23;3.30;;;1.30;;
76725;SDS011;65651;53.154;17.916;2023-07-31T06:51:50;2.90;;;1.30;;
76725;SDS011;65651;53.154;17.916;2023-07-31T06:54:20;2.70;;;1.50;;
76725;SDS011;65651;53.154;17.916;2023-07-31T06:56:47;4.30;;;1.30;;
76725;SDS011;65651;53.154;17.916;2023-07-31T06:59:15;3.00;;;1.30;;
76725;SDS011;65651;53.154;17.916;2023-07-31T07:01:42;5.60;;;1.20;;
76725;SDS011;65651;53.154;17.916;2023-07-31T07:04:09;3.80;;;1.40;;
76725;SDS011;65651;53.154;17.916;2023-07-31T07:06:37;2.80;;;1.60;;
76725;SDS011;65651;53.154;17.916;2023-07-31T07:09:04;5.20;;;1.60;;
76725;SDS011;65651;53.154;17.916;2023-07-31T07:11:32;4.50;;;1.50;;
76725;SDS011;65651;53.154;17.916;2023-07-31T07:13:59;2.70;;;1.00;;
76725;SDS011;65651;53.154;17.916;2023-07-31T07:16:28;2.90;;;1.20;;
76725;SDS011;65651;53.154;17.916;2023-07-31T07:18:55;2.50;;;1.20;;
76725;SDS011;65651;53.154;17.916;2023-07-31T07:21:22;3.30;;;1.30;;
76725;SDS011;65651;53.154;17.916;2023-07-31T07:23:50;2.70;;;1.30;;
76725;SDS011;65651;53.154;17.916;2023-07-31T07:26:17;3.50;;;1.30;;
76725;SDS011;65651;53.154;17.916;2023-07-31T07:28:44;3.30;;;1.40;;
76725;SDS011;65651;53.154;17.916;2023-07-31T07:31:11;2.60;;;1.10;;
76725;SDS011;65651;53.154;17.916;2023-07-31T07:33:39;6.70;;;1.20;;
76725;SDS011;65651;53.154;17.916;2023-07-31T07:36:06;6.40;;;1.10;;
76725;SDS011;65651;53.154;17.916;2023-07-31T07:38:36;4.20;;;1.20;;
76725;SDS011;65651;53.154;17.916;2023-07-31T07:41:05;3.80;;;1.70;;
76725;SDS011;65651;53.154;17.916;2023-07-31T07:43:32;4.20;;;1.00;;
76725;SDS011;65651;53.154;17.916;2023-07-31T07:46:00;4.40;;;0.90;;
76725;SDS011;65651;53.154;17.916;2023-07-31T07:48:27;4.10;;;1.10;;
76725;SDS011;65651;53.154;17.916;2023-07-31T07:50:55;4.30;;;1.00;;
76725;SDS011;65651;53.154;17.916;2023-07-31T07:53:22;4.20;;;1.10;;
76725;SDS011;65651;53.154;17.916;2023-07-31T07:55:49;2.70;;;0.90;;
76725;SDS011;65651;53.154;17.916;2023-07-31T07:58:16;6.30;;;1.00;;
76725;SDS011;65651;53.154;17.916;2023-07-31T08:00:50;3.40;;;0.90;;
76725;SDS011;65651;53.154;17.916;2023-07-31T08:03:18;5.00;;;1.20;;
76725;SDS011;65651;53.154;17.916;2023-07-31T08:05:45;4.70;;;0.90;;
76725;SDS011;65651;53.154;17.916;2023-07-31T08:08:16;2.00;;;0.70;;
76725;SDS011;65651;53.154;17.916;2023-07-31T08:10:44;2.40;;;0.70;;
76725;SDS011;65651;53.154;17.916;2023-07-31T08:13:11;4.40;;;0.80;;
76725;SDS011;65651;53.154;17.916;2023-07-31T08:15:40;2.80;;;0.90;;
76725;SDS011;65651;53.154;17.916;2023-07-31T08:18:08;3.90;;;0.80;;
76725;SDS011;65651;53.154;17.916;2023-07-31T08:20:36;2.80;;;0.60;;
76725;SDS011;65651;53.154;17.916;2023-07-31T08:23:04;3.30;;;1.30;;
76725;SDS011;65651;53.154;17.916;2023-07-31T08:25:33;3.80;;;1.20;;
76725;SDS011;65651;53.154;17.916;2023-07-31T08:28:02;5.60;;;0.80;;
76725;SDS011;65651;53.154;17.916;2023-07-31T08:30:32;2.40;;;1.00;;
76725;SDS011;65651;53.154;17.916;2023-07-31T08:33:00;6.10;;;0.90;;
76725;SDS011;65651;53.154;17.916;2023-07-31T08:35:28;9.50;;;1.40;;
76725;SDS011;65651;53.154;17.916;2023-07-31T08:37:56;3.30;;;1.00;;
76725;SDS011;65651;53.154;17.916;2023-07-31T08:40:23;3.00;;;0.90;;
76725;SDS011;65651;53.154;17.916;2023-07-31T08:42:52;5.70;;;1.20;;
76725;SDS011;65651;53.154;17.916;2023-07-31T08:45:21;4.40;;;0.90;;
76725;SDS011;65651;53.154;17.916;2023-07-31T08:47:49;5.20;;;0.90;;
76725;SDS011;65651;53.154;17.916;2023-07-31T08:50:18;1.70;;;0.90;;
76725;SDS011;65651;53.154;17.916;2023-07-31T08:52:47;4.50;;;1.00;;
76725;SDS011;65651;53.154;17.916;2023-07-31T08:55:16;2.40;;;0.70;;
76725;SDS011;65651;53.154;17.916;2023-07-31T08:57:44;3.00;;;0.90;;
76725;SDS011;65651;53.154;17.916;2023-07-31T09:00:13;3.50;;;0.80;;
76725;SDS011;65651;53.154;17.916;2023-07-31T09:02:45;3.90;;;1.00;;
76725;SDS011;65651;53.154;17.916;2023-07-31T09:05:13;5.20;;;0.90;;
76725;SDS011;65651;53.154;17.916;2023-07-31T09:07:41;2.30;;;0.90;;
76725;SDS011;65651;53.154;17.916;2023-07-31T09:10:13;4.70;;;1.20;;
76725;SDS011;65651;53.154;17.916;2023-07-31T09:12:40;3.20;;;1.10;;
76725;SDS011;65651;53.154;17.916;2023-07-31T09:15:09;4.10;;;1.10;;
76725;SDS011;65651;53.154;17.916;2023-07-31T09:17:38;4.20;;;0.90;;
76725;SDS011;65651;53.154;17.916;2023-07-31T09:20:13;5.60;;;1.10;;
76725;SDS011;65651;53.154;17.916;2023-07-31T09:22:44;3.50;;;1.10;;
76725;SDS011;65651;53.154;17.916;2023-07-31T09:25:16;2.50;;;1.40;;
76725;SDS011;65651;53.154;17.916;2023-07-31T09:27:49;2.20;;;1.10;;
76725;SDS011;65651;53.154;17.916;2023-07-31T09:30:18;7.90;;;1.00;;
76725;SDS011;65651;53.154;17.916;2023-07-31T09:32:46;3.60;;;0.80;;
76725;SDS011;65651;53.154;17.916;2023-07-31T09:35:21;2.30;;;1.00;;
76725;SDS011;65651;53.154;17.916;2023-07-31T09:37:57;3.90;;;0.90;;
76725;SDS011;65651;53.154;17.916;2023-07-31T09:40:30;4.00;;;2.00;;
76725;SDS011;65651;53.154;17.916;2023-07-31T09:43:06;4.60;;;1.20;;
76725;SDS011;65651;53.154;17.916;2023-07-31T09:45:41;2.50;;;0.80;;
76725;SDS011;65651;53.154;17.916;2023-07-31T09:48:14;2.40;;;1.10;;
76725;SDS011;65651;53.154;17.916;2023-07-31T09:50:47;2.90;;;0.70;;
76725;SDS011;65651;53.154;17.916;2023-07-31T09:53:16;3.00;;;1.10;;
76725;SDS011;65651;53.154;17.916;2023-07-31T09:55:44;4.00;;;1.00;;
76725;SDS011;65651;53.154;17.916;2023-07-31T09:58:12;2.90;;;1.10;;
76725;SDS011;65651;53.154;17.916;2023-07-31T10:00:40;4.50;;;1.00;;
76725;SDS011;65651;53.154;17.916;2023-07-31T10:03:08;4.00;;;1.00;;
76725;SDS011;65651;53.154;17.916;2023-07-31T10:05:40;7.30;;;1.80;;
76725;SDS011;65651;53.154;17.916;2023-07-31T10:08:09;3.50;;;1.80;;
76725;SDS011;65651;53.154;17.916;2023-07-31T10:10:41;6.00;;;1.80;;
76725;SDS011;65651;53.154;17.916;2023-07-31T10:13:10;7.80;;;2.60;;
76725;SDS011;65651;53.154;17.916;2023-07-31T10:15:39;5.10;;;1.40;;
76725;SDS011;65651;53.154;17.916;2023-07-31T10:18:10;4.00;;;1.50;;
76725;SDS011;65651;53.154;17.916;2023-07-31T10:20:38;4.60;;;1.70;;
76725;SDS011;65651;53.154;17.916;2023-07-31T10:23:07;4.50;;;1.80;;
76725;SDS011;65651;53.154;17.916;2023-07-31T10:25:37;3.40;;;1.40;;
76725;SDS011;65651;53.154;17.916;2023-07-31T10:28:05;4.50;;;2.10;;
76725;SDS011;65651;53.154;17.916;2023-07-31T10:30:37;2.20;;;0.90;;
76725;SDS011;65651;53.154;17.916;2023-07-31T10:33:07;5.70;;;2.40;;
76725;SDS011;65651;53.154;17.916;2023-07-31T10:35:35;7.80;;;2.70;;
76725;SDS011;65651;53.154;17.916;2023-07-31T10:38:09;2.70;;;1.50;;
76725;SDS011;65651;53.154;17.916;2023-07-31T10:40:40;3.00;;;1.60;;
76725;SDS011;65651;53.154;17.916;2023-07-31T10:43:09;4.00;;;1.70;;
76725;SDS011;65651;53.154;17.916;2023-07-31T10:45:50;4.40;;;1.60;;
76725;SDS011;65651;53.154;17.916;2023-07-31T10:48:21;5.40;;;1.60;;
76725;SDS011;65651;53.154;17.916;2023-07-31T10:50:50;5.40;;;1.50;;
76725;SDS011;65651;53.154;17.916;2023-07-31T10:53:23;7.10;;;2.00;;
76725;SDS011;65651;53.154;17.916;2023-07-31T10:55:52;2.50;;;1.50;;
76725;SDS011;65651;53.154;17.916;2023-07-31T10:58:20;8.30;;;1.80;;
76725;SDS011;65651;53.154;17.916;2023-07-31T11:00:48;6.80;;;2.00;;
76725;SDS011;65651;53.154;17.916;2023-07-31T11:03:16;2.90;;;1.40;;
76725;SDS011;65651;53.154;17.916;2023-07-31T11:08:21;3.90;;;1.10;;
76725;SDS011;65651;53.154;17.916;2023-07-31T11:10:51;2.70;;;1.10;;
76725;SDS011;65651;53.154;17.916;2023-07-31T11:13:51;4.70;;;1.00;;
76725;SDS011;65651;53.154;17.916;2023-07-31T11:16:24;3.10;;;0.90;;
76725;SDS011;65651;53.154;17.916;2023-07-31T11:18:52;4.60;;;0.70;;
76725;SDS011;65651;53.154;17.916;2023-07-31T11:21:23;2.90;;;1.00;;
76725;SDS011;65651;53.154;17.916;2023-07-31T11:23:52;5.10;;;1.80;;
76725;SDS011;65651;53.154;17.916;2023-07-31T11:26:23;2.90;;;1.00;;
76725;SDS011;65651;53.154;17.916;2023-07-31T11:28:51;2.70;;;1.00;;
76725;SDS011;65651;53.154;17.916;2023-07-31T11:31:19;3.60;;;1.60;;
76725;SDS011;65651;53.154;17.916;2023-07-31T11:33:47;2.40;;;1.00;;
76725;SDS011;65651;53.154;17.916;2023-07-31T11:36:15;3.10;;;1.60;;
76725;SDS011;65651;53.154;17.916;2023-07-31T11:38:44;3.40;;;1.30;;
76725;SDS011;65651;53.154;17.916;2023-07-31T11:41:13;3.70;;;1.70;;
76725;SDS011;65651;53.154;17.916;2023-07-31T11:43:41;5.60;;;2.00;;
76725;SDS011;65651;53.154;17.916;2023-07-31T11:46:09;5.10;;;1.80;;
76725;SDS011;65651;53.154;17.916;2023-07-31T11:48:37;2.60;;;1.20;;
76725;SDS011;65651;53.154;17.916;2023-07-31T11:51:05;5.90;;;2.20;;
76725;SDS011;65651;53.154;17.916;2023-07-31T11:53:51;4.60;;;2.00;;
76725;SDS011;65651;53.154;17.916;2023-07-31T11:56:20;2.30;;;1.30;;
76725;SDS011;65651;53.154;17.916;2023-07-31T11:58:51;2.00;;;1.00;;
76725;SDS011;65651;53.154;17.916;2023-07-31T12:01:24;1.80;;;0.90;;
76725;SDS011;65651;53.154;17.916;2023-07-31T12:03:54;2.50;;;0.80;;
76725;SDS011;65651;53.154;17.916;2023-07-31T12:06:32;2.00;;;1.00;;
76725;SDS011;65651;53.154;17.916;2023-07-31T12:09:01;1.80;;;0.80;;
76725;SDS011;65651;53.154;17.916;2023-07-31T12:11:30;2.20;;;1.00;;
76725;SDS011;65651;53.154;17.916;2023-07-31T12:13:57;3.40;;;1.00;;
76725;SDS011;65651;53.154;17.916;2023-07-31T12:16:26;6.10;;;1.30;;
76725;SDS011;65651;53.154;17.916;2023-07-31T12:18:55;3.20;;;0.90;;
76725;SDS011;65651;53.154;17.916;2023-07-31T12:21:22;5.30;;;1.10;;
76725;SDS011;65651;53.154;17.916;2023-07-31T12:23:51;2.30;;;1.00;;
76725;SDS011;65651;53.154;17.916;2023-07-31T12:26:20;3.00;;;1.00;;
76725;SDS011;65651;53.154;17.916;2023-07-31T12:28:48;2.20;;;1.00;;
76725;SDS011;65651;53.154;17.916;2023-07-31T12:31:20;2.70;;;0.80;;
76725;SDS011;65651;53.154;17.916;2023-07-31T12:33:51;2.60;;;0.80;;
76725;SDS011;65651;53.154;17.916;2023-07-31T12:36:22;1.90;;;0.80;;
76725;SDS011;65651;53.154;17.916;2023-07-31T12:38:52;4.50;;;1.10;;
76725;SDS011;65651;53.154;17.916;2023-07-31T12:41:23;3.40;;;0.90;;
76725;SDS011;65651;53.154;17.916;2023-07-31T12:43:50;2.40;;;0.80;;
76725;SDS011;65651;53.154;17.916;2023-07-31T12:46:18;3.20;;;1.00;;
76725;SDS011;65651;53.154;17.916;2023-07-31T12:48:49;3.60;;;1.00;;
76725;SDS011;65651;53.154;17.916;2023-07-31T12:51:16;1.80;;;1.10;;
76725;SDS011;65651;53.154;17.916;2023-07-31T12:53:43;2.00;;;1.10;;
76725;SDS011;65651;53.154;17.916;2023-07-31T12:56:11;2.40;;;1.20;;
76725;SDS011;65651;53.154;17.916;2023-07-31T12:58:38;1.70;;;1.00;;
76725;SDS011;65651;53.154;17.916;2023-07-31T13:01:06;1.80;;;1.30;;
76725;SDS011;65651;53.154;17.916;2023-07-31T13:03:33;2.60;;;1.50;;
76725;SDS011;65651;53.154;17.916;2023-07-31T13:06:02;5.30;;;1.20;;
76725;SDS011;65651;53.154;17.916;2023-07-31T13:08:31;3.40;;;1.80;;
76725;SDS011;65651;53.154;17.916;2023-07-31T13:10:58;2.40;;;1.10;;
76725;SDS011;65651;53.154;17.916;2023-07-31T13:13:25;1.90;;;1.10;;
76725;SDS011;65651;53.154;17.916;2023-07-31T13:15:52;2.50;;;1.30;;
76725;SDS011;65651;53.154;17.916;2023-07-31T13:18:20;2.20;;;1.00;;
76725;SDS011;65651;53.154;17.916;2023-07-31T13:20:47;3.10;;;1.00;;
76725;SDS011;65651;53.154;17.916;2023-07-31T13:23:14;2.60;;;1.10;;
76725;SDS011;65651;53.154;17.916;2023-07-31T13:25:42;3.30;;;1.40;;
76725;SDS011;65651;53.154;17.916;2023-07-31T13:28:10;2.40;;;1.40;;
76725;SDS011;65651;53.154;17.916;2023-07-31T13:30:37;5.60;;;1.00;;
76725;SDS011;65651;53.154;17.916;2023-07-31T13:33:06;6.10;;;2.10;;
76725;SDS011;65651;53.154;17.916;2023-07-31T13:35:37;6.40;;;1.40;;
76725;SDS011;65651;53.154;17.916;2023-07-31T13:38:07;2.70;;;1.50;;
76725;SDS011;65651;53.154;17.916;2023-07-31T13:40:37;3.40;;;1.00;;
76725;SDS011;65651;53.154;17.916;2023-07-31T13:43:07;2.40;;;0.90;;
76725;SDS011;65651;53.154;17.916;2023-07-31T13:45:34;2.40;;;1.10;;
76725;SDS011;65651;53.154;17.916;2023-07-31T13:48:02;2.20;;;1.10;;
76725;SDS011;65651;53.154;17.916;2023-07-31T13:50:29;2.40;;;1.00;;
76725;SDS011;65651;53.154;17.916;2023-07-31T13:52:56;3.30;;;1.10;;
76725;SDS011;65651;53.154;17.916;2023-07-31T13:55:24;3.50;;;1.40;;
76725;SDS011;65651;53.154;17.916;2023-07-31T13:57:55;2.70;;;1.50;;
76725;SDS011;65651;53.154;17.916;2023-07-31T14:00:25;2.30;;;1.10;;
76725;SDS011;65651;53.154;17.916;2023-07-31T14:02:55;1.60;;;1.10;;
76725;SDS011;65651;53.154;17.916;2023-07-31T14:05:32;5.10;;;1.30;;
76725;SDS011;65651;53.154;17.916;2023-07-31T14:07:59;2.70;;;1.50;;
76725;SDS011;65651;53.154;17.916;2023-07-31T14:10:28;2.20;;;1.00;;
76725;SDS011;65651;53.154;17.916;2023-07-31T14:12:56;3.00;;;1.30;;
76725;SDS011;65651;53.154;17.916;2023-07-31T14:15:23;2.40;;;1.10;;
76725;SDS011;65651;53.154;17.916;2023-07-31T14:17:54;2.90;;;1.20;;
76725;SDS011;65651;53.154;17.916;2023-07-31T14:20:23;2.80;;;1.40;;
76725;SDS011;65651;53.154;17.916;2023-07-31T14:22:54;2.40;;;1.10;;
76725;SDS011;65651;53.154;17.916;2023-07-31T14:25:22;2.50;;;0.90;;
76725;SDS011;65651;53.154;17.916;2023-07-31T14:27:49;2.20;;;1.10;;
76725;SDS011;65651;53.154;17.916;2023-07-31T14:30:17;2.90;;;1.20;;
76725;SDS011;65651;53.154;17.916;2023-07-31T14:32:45;2.30;;;0.90;;
76725;SDS011;65651;53.154;17.916;2023-07-31T14:35:14;2.20;;;1.20;;
76725;SDS011;65651;53.154;17.916;2023-07-31T14:37:43;2.20;;;0.80;;
76725;SDS011;65651;53.154;17.916;2023-07-31T14:40:12;3.00;;;1.30;;
76725;SDS011;65651;53.154;17.916;2023-07-31T14:42:40;1.60;;;1.10;;
76725;SDS011;65651;53.154;17.916;2023-07-31T14:45:11;1.60;;;1.20;;
76725;SDS011;65651;53.154;17.916;2023-07-31T14:47:38;2.00;;;1.40;;
76725;SDS011;65651;53.154;17.916;2023-07-31T14:50:05;3.60;;;1.00;;